Terminal Aerodrome Forecast
Issued by NWS

Home | Current Version | Previous Version | Text Only | Print | Product List | Glossary On
Versions: 1 2 3 4 5 6 7 8 9 10 11 12 13 14 15 16 17 18 19 20 21 22 23 24 25
696
FTUS43 KDLH 261535 AAA
TAFHYR
TAF AMD
KHYR 261535Z 2616/2712 04005KT P6SM OVC007
     FM261800 03006KT P6SM VCSH OVC008
     FM270300 VRB03KT 3SM BR OVC008
     FM270800 00000KT 2SM BR OVC003=

USA.gov is the U.S. government's official web portal to all federal, state and local government web resources and services.